sensor_id;sensor_type;location;lat;lon;timestamp;temperature;humidity
51383;DHT22;37475;43.358;1.248;2023-03-23T00:00:12;13.70;64.00
51383;DHT22;37475;43.358;1.248;2023-03-23T00:02:38;13.60;64.30
51383;DHT22;37475;43.358;1.248;2023-03-23T00:05:05;13.60;64.60
51383;DHT22;37475;43.358;1.248;2023-03-23T00:07:33;13.60;65.00
51383;DHT22;37475;43.358;1.248;2023-03-23T00:09:59;13.60;64.90
51383;DHT22;37475;43.358;1.248;2023-03-23T00:12:29;13.60;65.10
51383;DHT22;37475;43.358;1.248;2023-03-23T00:15:04;13.60;64.90
51383;DHT22;37475;43.358;1.248;2023-03-23T00:17:32;13.60;64.90
51383;DHT22;37475;43.358;1.248;2023-03-23T00:19:59;13.60;65.10
51383;DHT22;37475;43.358;1.248;2023-03-23T00:22:27;13.60;65.00
51383;DHT22;37475;43.358;1.248;2023-03-23T00:24:53;13.60;65.00
51383;DHT22;37475;43.358;1.248;2023-03-23T00:27:20;13.60;65.40
51383;DHT22;37475;43.358;1.248;2023-03-23T00:29:51;13.60;65.80
51383;DHT22;37475;43.358;1.248;2023-03-23T00:32:22;13.50;66.30
51383;DHT22;37475;43.358;1.248;2023-03-23T00:34:53;13.60;65.60
51383;DHT22;37475;43.358;1.248;2023-03-23T00:37:24;13.60;65.00
51383;DHT22;37475;43.358;1.248;2023-03-23T00:39:50;13.60;65.10
51383;DHT22;37475;43.358;1.248;2023-03-23T00:42:17;13.50;65.90
51383;DHT22;37475;43.358;1.248;2023-03-23T00:44:43;13.50;65.40
51383;DHT22;37475;43.358;1.248;2023-03-23T00:47:10;13.60;65.90
51383;DHT22;37475;43.358;1.248;2023-03-23T00:49:38;13.50;66.10
51383;DHT22;37475;43.358;1.248;2023-03-23T00:52:05;13.50;65.90
51383;DHT22;37475;43.358;1.248;2023-03-23T00:54:32;13.50;66.00
51383;DHT22;37475;43.358;1.248;2023-03-23T00:56:59;13.50;66.10
51383;DHT22;37475;43.358;1.248;2023-03-23T00:59:25;13.40;66.20
51383;DHT22;37475;43.358;1.248;2023-03-23T01:01:51;13.40;66.90
51383;DHT22;37475;43.358;1.248;2023-03-23T01:04:17;13.30;66.60
51383;DHT22;37475;43.358;1.248;2023-03-23T01:06:44;13.30;66.00
51383;DHT22;37475;43.358;1.248;2023-03-23T01:09:14;13.30;65.50
51383;DHT22;37475;43.358;1.248;2023-03-23T01:11:43;13.30;65.70
51383;DHT22;37475;43.358;1.248;2023-03-23T01:14:10;13.20;65.60
51383;DHT22;37475;43.358;1.248;2023-03-23T01:16:37;13.20;65.50
51383;DHT22;37475;43.358;1.248;2023-03-23T01:19:03;13.20;65.10
51383;DHT22;37475;43.358;1.248;2023-03-23T01:21:29;13.20;65.30
51383;DHT22;37475;43.358;1.248;2023-03-23T01:23:55;13.20;65.10
51383;DHT22;37475;43.358;1.248;2023-03-23T01:26:24;13.20;65.20
51383;DHT22;37475;43.358;1.248;2023-03-23T01:28:51;13.20;65.50
51383;DHT22;37475;43.358;1.248;2023-03-23T01:31:19;13.20;65.40
51383;DHT22;37475;43.358;1.248;2023-03-23T01:33:47;13.20;65.90
51383;DHT22;37475;43.358;1.248;2023-03-23T01:36:18;13.20;65.60
51383;DHT22;37475;43.358;1.248;2023-03-23T01:38:47;13.20;65.60
51383;DHT22;37475;43.358;1.248;2023-03-23T01:41:14;13.20;65.40
51383;DHT22;37475;43.358;1.248;2023-03-23T01:44:07;13.10;65.90
51383;DHT22;37475;43.358;1.248;2023-03-23T01:46:35;13.10;65.50
51383;DHT22;37475;43.358;1.248;2023-03-23T01:49:06;13.10;66.10
51383;DHT22;37475;43.358;1.248;2023-03-23T01:51:40;13.10;66.30
51383;DHT22;37475;43.358;1.248;2023-03-23T01:54:15;13.00;66.80
51383;DHT22;37475;43.358;1.248;2023-03-23T01:56:55;13.10;66.40
51383;DHT22;37475;43.358;1.248;2023-03-23T01:59:25;12.90;67.20
51383;DHT22;37475;43.358;1.248;2023-03-23T02:01:53;12.90;66.50
51383;DHT22;37475;43.358;1.248;2023-03-23T02:04:20;12.80;67.10
51383;DHT22;37475;43.358;1.248;2023-03-23T02:06:49;12.90;67.00
51383;DHT22;37475;43.358;1.248;2023-03-23T02:09:17;12.80;67.70
51383;DHT22;37475;43.358;1.248;2023-03-23T02:11:45;12.80;67.00
51383;DHT22;37475;43.358;1.248;2023-03-23T02:14:12;12.80;67.00
51383;DHT22;37475;43.358;1.248;2023-03-23T02:17:42;12.80;67.00
51383;DHT22;37475;43.358;1.248;2023-03-23T02:32:39;12.80;68.30
51383;DHT22;37475;43.358;1.248;2023-03-23T02:35:35;12.60;69.00
51383;DHT22;37475;43.358;1.248;2023-03-23T02:38:13;12.60;69.00
51383;DHT22;37475;43.358;1.248;2023-03-23T02:40:44;12.60;69.40
51383;DHT22;37475;43.358;1.248;2023-03-23T02:43:16;12.60;70.00
51383;DHT22;37475;43.358;1.248;2023-03-23T02:45:45;12.60;70.70
51383;DHT22;37475;43.358;1.248;2023-03-23T02:48:14;12.60;70.20
51383;DHT22;37475;43.358;1.248;2023-03-23T02:50:46;12.50;71.10
51383;DHT22;37475;43.358;1.248;2023-03-23T02:53:16;12.50;71.40
51383;DHT22;37475;43.358;1.248;2023-03-23T02:55:46;12.50;72.30
51383;DHT22;37475;43.358;1.248;2023-03-23T02:58:14;12.40;72.70
51383;DHT22;37475;43.358;1.248;2023-03-23T03:00:41;12.40;73.30
51383;DHT22;37475;43.358;1.248;2023-03-23T03:03:13;12.40;73.30
51383;DHT22;37475;43.358;1.248;2023-03-23T03:08:55;12.50;73.70
51383;DHT22;37475;43.358;1.248;2023-03-23T03:11:26;12.50;73.90
51383;DHT22;37475;43.358;1.248;2023-03-23T03:14:02;12.40;74.70
51383;DHT22;37475;43.358;1.248;2023-03-23T03:19:56;12.40;75.40
51383;DHT22;37475;43.358;1.248;2023-03-23T03:22:25;12.30;75.90
51383;DHT22;37475;43.358;1.248;2023-03-23T03:24:55;12.40;75.60
51383;DHT22;37475;43.358;1.248;2023-03-23T03:27:23;12.30;75.40
51383;DHT22;37475;43.358;1.248;2023-03-23T03:29:54;12.20;77.20
51383;DHT22;37475;43.358;1.248;2023-03-23T03:32:31;12.20;77.10
51383;DHT22;37475;43.358;1.248;2023-03-23T03:35:04;12.30;77.00
51383;DHT22;37475;43.358;1.248;2023-03-23T03:37:38;12.10;78.40
51383;DHT22;37475;43.358;1.248;2023-03-23T03:40:11;12.10;78.60
51383;DHT22;37475;43.358;1.248;2023-03-23T03:42:43;12.10;78.90
51383;DHT22;37475;43.358;1.248;2023-03-23T03:45:18;12.00;79.20
51383;DHT22;37475;43.358;1.248;2023-03-23T03:47:45;11.90;80.60
51383;DHT22;37475;43.358;1.248;2023-03-23T03:50:11;11.90;80.90
51383;DHT22;37475;43.358;1.248;2023-03-23T03:52:37;11.90;81.00
51383;DHT22;37475;43.358;1.248;2023-03-23T03:55:05;11.80;81.70
51383;DHT22;37475;43.358;1.248;2023-03-23T03:57:32;11.80;81.80
51383;DHT22;37475;43.358;1.248;2023-03-23T03:59:58;11.70;82.80
51383;DHT22;37475;43.358;1.248;2023-03-23T04:02:24;11.70;83.30
51383;DHT22;37475;43.358;1.248;2023-03-23T04:04:50;11.70;84.10
51383;DHT22;37475;43.358;1.248;2023-03-23T04:07:18;11.70;84.30
51383;DHT22;37475;43.358;1.248;2023-03-23T04:09:45;11.60;85.10
51383;DHT22;37475;43.358;1.248;2023-03-23T04:12:13;11.60;85.40
51383;DHT22;37475;43.358;1.248;2023-03-23T04:14:40;11.60;85.80
51383;DHT22;37475;43.358;1.248;2023-03-23T04:17:06;11.60;86.20
51383;DHT22;37475;43.358;1.248;2023-03-23T04:19:34;11.60;86.30
51383;DHT22;37475;43.358;1.248;2023-03-23T04:22:03;11.60;86.30
51383;DHT22;37475;43.358;1.248;2023-03-23T04:24:30;11.60;86.20
51383;DHT22;37475;43.358;1.248;2023-03-23T04:26:59;11.60;86.30
51383;DHT22;37475;43.358;1.248;2023-03-23T04:29:25;11.60;86.70
51383;DHT22;37475;43.358;1.248;2023-03-23T04:31:52;11.60;86.80
51383;DHT22;37475;43.358;1.248;2023-03-23T04:34:18;11.60;87.10
51383;DHT22;37475;43.358;1.248;2023-03-23T04:36:44;11.60;87.40
51383;DHT22;37475;43.358;1.248;2023-03-23T04:39:12;11.60;87.40
51383;DHT22;37475;43.358;1.248;2023-03-23T04:41:39;11.60;87.60
51383;DHT22;37475;43.358;1.248;2023-03-23T04:44:06;11.60;87.60
51383;DHT22;37475;43.358;1.248;2023-03-23T04:46:33;11.60;87.70
51383;DHT22;37475;43.358;1.248;2023-03-23T04:48:59;11.60;87.50
51383;DHT22;37475;43.358;1.248;2023-03-23T04:51:26;11.60;87.40
51383;DHT22;37475;43.358;1.248;2023-03-23T04:53:54;11.60;87.40
51383;DHT22;37475;43.358;1.248;2023-03-23T04:56:20;11.60;87.90
51383;DHT22;37475;43.358;1.248;2023-03-23T04:58:46;11.60;87.70
51383;DHT22;37475;43.358;1.248;2023-03-23T05:01:13;11.60;87.70
51383;DHT22;37475;43.358;1.248;2023-03-23T05:03:40;11.70;87.80
51383;DHT22;37475;43.358;1.248;2023-03-23T05:06:06;11.60;88.10
51383;DHT22;37475;43.358;1.248;2023-03-23T05:08:33;11.70;88.20
51383;DHT22;37475;43.358;1.248;2023-03-23T05:11:00;11.60;88.30
51383;DHT22;37475;43.358;1.248;2023-03-23T05:13:29;11.60;88.30
51383;DHT22;37475;43.358;1.248;2023-03-23T05:15:55;11.60;88.50
51383;DHT22;37475;43.358;1.248;2023-03-23T05:18:21;11.60;88.60
51383;DHT22;37475;43.358;1.248;2023-03-23T05:20:47;11.60;88.70
51383;DHT22;37475;43.358;1.248;2023-03-23T05:23:14;11.60;89.10
51383;DHT22;37475;43.358;1.248;2023-03-23T05:25:41;11.60;89.20
51383;DHT22;37475;43.358;1.248;2023-03-23T05:28:10;11.60;89.20
51383;DHT22;37475;43.358;1.248;2023-03-23T05:30:38;11.60;89.30
51383;DHT22;37475;43.358;1.248;2023-03-23T05:33:04;11.60;89.40
51383;DHT22;37475;43.358;1.248;2023-03-23T05:35:31;11.60;89.30
51383;DHT22;37475;43.358;1.248;2023-03-23T05:37:57;11.70;89.40
51383;DHT22;37475;43.358;1.248;2023-03-23T05:40:23;11.60;89.60
51383;DHT22;37475;43.358;1.248;2023-03-23T05:42:51;11.70;89.50
51383;DHT22;37475;43.358;1.248;2023-03-23T05:45:18;11.60;89.90
51383;DHT22;37475;43.358;1.248;2023-03-23T05:47:44;11.70;89.80
51383;DHT22;37475;43.358;1.248;2023-03-23T05:50:11;11.70;89.90
51383;DHT22;37475;43.358;1.248;2023-03-23T05:52:38;11.70;89.90
51383;DHT22;37475;43.358;1.248;2023-03-23T05:55:05;11.70;90.00
51383;DHT22;37475;43.358;1.248;2023-03-23T05:57:32;11.70;90.10
51383;DHT22;37475;43.358;1.248;2023-03-23T05:59:58;11.60;90.10
51383;DHT22;37475;43.358;1.248;2023-03-23T06:02:25;11.70;90.10
51383;DHT22;37475;43.358;1.248;2023-03-23T06:04:53;11.70;90.10
51383;DHT22;37475;43.358;1.248;2023-03-23T06:07:24;11.70;90.10
51383;DHT22;37475;43.358;1.248;2023-03-23T06:09:51;11.70;90.30
51383;DHT22;37475;43.358;1.248;2023-03-23T06:12:17;11.80;90.10
51383;DHT22;37475;43.358;1.248;2023-03-23T06:14:47;11.80;90.10
51383;DHT22;37475;43.358;1.248;2023-03-23T06:17:15;11.80;89.90
51383;DHT22;37475;43.358;1.248;2023-03-23T06:19:42;11.80;90.60
51383;DHT22;37475;43.358;1.248;2023-03-23T06:22:09;11.80;90.40
51383;DHT22;37475;43.358;1.248;2023-03-23T06:24:36;11.80;90.50
51383;DHT22;37475;43.358;1.248;2023-03-23T06:27:01;11.80;90.50
51383;DHT22;37475;43.358;1.248;2023-03-23T06:29:28;11.80;90.50
51383;DHT22;37475;43.358;1.248;2023-03-23T06:32:00;11.80;90.40
51383;DHT22;37475;43.358;1.248;2023-03-23T06:34:27;11.90;90.40
51383;DHT22;37475;43.358;1.248;2023-03-23T06:36:53;11.80;90.40
51383;DHT22;37475;43.358;1.248;2023-03-23T06:39:19;11.80;90.50
51383;DHT22;37475;43.358;1.248;2023-03-23T06:41:45;11.90;90.60
51383;DHT22;37475;43.358;1.248;2023-03-23T06:44:10;11.80;91.10
51383;DHT22;37475;43.358;1.248;2023-03-23T06:46:39;11.90;91.10
51383;DHT22;37475;43.358;1.248;2023-03-23T06:49:07;12.00;91.10
51383;DHT22;37475;43.358;1.248;2023-03-23T06:51:33;12.10;91.00
51383;DHT22;37475;43.358;1.248;2023-03-23T06:53:59;12.10;91.00
51383;DHT22;37475;43.358;1.248;2023-03-23T06:56:25;12.30;90.80
51383;DHT22;37475;43.358;1.248;2023-03-23T06:58:52;12.30;90.90
51383;DHT22;37475;43.358;1.248;2023-03-23T07:01:18;12.50;90.70
51383;DHT22;37475;43.358;1.248;2023-03-23T07:03:44;12.50;90.30
51383;DHT22;37475;43.358;1.248;2023-03-23T07:06:11;12.60;90.20
51383;DHT22;37475;43.358;1.248;2023-03-23T07:08:37;12.80;89.90
51383;DHT22;37475;43.358;1.248;2023-03-23T07:11:03;12.90;89.60
51383;DHT22;37475;43.358;1.248;2023-03-23T07:13:29;13.00;89.10
51383;DHT22;37475;43.358;1.248;2023-03-23T07:15:55;12.90;89.10
51383;DHT22;37475;43.358;1.248;2023-03-23T07:18:22;13.00;89.10
51383;DHT22;37475;43.358;1.248;2023-03-23T07:20:52;12.90;89.30
51383;DHT22;37475;43.358;1.248;2023-03-23T07:23:18;13.00;89.10
51383;DHT22;37475;43.358;1.248;2023-03-23T07:25:45;12.90;89.10
51383;DHT22;37475;43.358;1.248;2023-03-23T07:28:12;12.90;89.10
51383;DHT22;37475;43.358;1.248;2023-03-23T07:30:39;12.90;89.10
51383;DHT22;37475;43.358;1.248;2023-03-23T07:33:06;12.90;89.00
51383;DHT22;37475;43.358;1.248;2023-03-23T07:35:33;12.90;89.10
51383;DHT22;37475;43.358;1.248;2023-03-23T07:38:00;12.90;88.80
51383;DHT22;37475;43.358;1.248;2023-03-23T07:40:26;12.80;88.90
51383;DHT22;37475;43.358;1.248;2023-03-23T07:42:54;12.80;88.80
51383;DHT22;37475;43.358;1.248;2023-03-23T07:45:22;12.90;88.70
51383;DHT22;37475;43.358;1.248;2023-03-23T07:47:48;12.90;88.60
51383;DHT22;37475;43.358;1.248;2023-03-23T07:50:13;12.90;88.60
51383;DHT22;37475;43.358;1.248;2023-03-23T07:52:40;13.00;88.60
51383;DHT22;37475;43.358;1.248;2023-03-23T07:55:08;13.20;88.40
51383;DHT22;37475;43.358;1.248;2023-03-23T07:57:49;13.40;88.10
51383;DHT22;37475;43.358;1.248;2023-03-23T08:00:16;13.60;87.80
51383;DHT22;37475;43.358;1.248;2023-03-23T08:02:50;13.80;86.90
51383;DHT22;37475;43.358;1.248;2023-03-23T08:05:18;13.80;86.60
51383;DHT22;37475;43.358;1.248;2023-03-23T08:07:44;14.00;86.60
51383;DHT22;37475;43.358;1.248;2023-03-23T08:10:12;14.00;85.90
51383;DHT22;37475;43.358;1.248;2023-03-23T08:12:39;14.10;85.40
51383;DHT22;37475;43.358;1.248;2023-03-23T08:15:08;14.20;85.60
51383;DHT22;37475;43.358;1.248;2023-03-23T08:17:38;14.40;84.60
51383;DHT22;37475;43.358;1.248;2023-03-23T08:20:06;14.40;84.40
51383;DHT22;37475;43.358;1.248;2023-03-23T08:22:36;14.60;83.50
51383;DHT22;37475;43.358;1.248;2023-03-23T08:25:05;14.80;84.10
51383;DHT22;37475;43.358;1.248;2023-03-23T08:27:32;14.90;83.20
51383;DHT22;37475;43.358;1.248;2023-03-23T08:29:58;15.00;82.30
51383;DHT22;37475;43.358;1.248;2023-03-23T08:32:25;14.90;82.10
51383;DHT22;37475;43.358;1.248;2023-03-23T08:34:52;14.90;82.10
51383;DHT22;37475;43.358;1.248;2023-03-23T08:37:18;15.00;82.30
51383;DHT22;37475;43.358;1.248;2023-03-23T08:39:44;15.10;82.20
51383;DHT22;37475;43.358;1.248;2023-03-23T08:42:10;15.10;82.40
51383;DHT22;37475;43.358;1.248;2023-03-23T08:44:37;15.10;82.20
51383;DHT22;37475;43.358;1.248;2023-03-23T08:47:03;15.20;82.10
51383;DHT22;37475;43.358;1.248;2023-03-23T08:49:31;15.30;82.40
51383;DHT22;37475;43.358;1.248;2023-03-23T08:51:59;15.10;82.10
51383;DHT22;37475;43.358;1.248;2023-03-23T08:54:25;15.10;82.30
51383;DHT22;37475;43.358;1.248;2023-03-23T08:56:51;15.20;82.40
51383;DHT22;37475;43.358;1.248;2023-03-23T08:59:18;15.20;81.60
51383;DHT22;37475;43.358;1.248;2023-03-23T09:01:44;15.30;81.80
51383;DHT22;37475;43.358;1.248;2023-03-23T09:04:09;15.40;81.30
51383;DHT22;37475;43.358;1.248;2023-03-23T09:06:36;15.40;81.40
51383;DHT22;37475;43.358;1.248;2023-03-23T09:09:03;15.30;80.80
51383;DHT22;37475;43.358;1.248;2023-03-23T09:11:33;15.50;80.90
51383;DHT22;37475;43.358;1.248;2023-03-23T09:14:00;15.50;80.60
51383;DHT22;37475;43.358;1.248;2023-03-23T09:16:27;15.70;79.80
51383;DHT22;37475;43.358;1.248;2023-03-23T09:18:53;15.90;80.20
51383;DHT22;37475;43.358;1.248;2023-03-23T09:21:20;15.90;79.30
51383;DHT22;37475;43.358;1.248;2023-03-23T09:23:47;16.00;79.60
51383;DHT22;37475;43.358;1.248;2023-03-23T09:26:14;15.90;78.70
51383;DHT22;37475;43.358;1.248;2023-03-23T09:28:40;15.80;79.30
51383;DHT22;37475;43.358;1.248;2023-03-23T09:31:06;15.80;79.80
51383;DHT22;37475;43.358;1.248;2023-03-23T09:33:32;16.10;80.10
51383;DHT22;37475;43.358;1.248;2023-03-23T09:36:02;16.00;79.60
51383;DHT22;37475;43.358;1.248;2023-03-23T09:38:30;15.80;79.70
51383;DHT22;37475;43.358;1.248;2023-03-23T09:41:31;15.80;79.50
51383;DHT22;37475;43.358;1.248;2023-03-23T09:44:24;15.90;79.00
51383;DHT22;37475;43.358;1.248;2023-03-23T09:50:30;16.10;78.90
51383;DHT22;37475;43.358;1.248;2023-03-23T09:53:26;16.20;78.40
51383;DHT22;37475;43.358;1.248;2023-03-23T09:56:05;16.40;77.60
51383;DHT22;37475;43.358;1.248;2023-03-23T09:58:52;16.40;77.10
51383;DHT22;37475;43.358;1.248;2023-03-23T10:01:37;16.60;77.00
51383;DHT22;37475;43.358;1.248;2023-03-23T10:06:51;16.70;76.50
51383;DHT22;37475;43.358;1.248;2023-03-23T10:09:19;16.90;75.60
51383;DHT22;37475;43.358;1.248;2023-03-23T10:14:58;17.00;75.50
51383;DHT22;37475;43.358;1.248;2023-03-23T10:17:52;17.00;75.60
51383;DHT22;37475;43.358;1.248;2023-03-23T10:28:40;17.10;73.80
51383;DHT22;37475;43.358;1.248;2023-03-23T10:31:20;17.10;74.40
51383;DHT22;37475;43.358;1.248;2023-03-23T10:33:52;17.20;74.20
51383;DHT22;37475;43.358;1.248;2023-03-23T10:36:36;17.50;73.60
51383;DHT22;37475;43.358;1.248;2023-03-23T10:39:13;17.80;72.10
51383;DHT22;37475;43.358;1.248;2023-03-23T10:41:43;17.80;72.40
51383;DHT22;37475;43.358;1.248;2023-03-23T10:44:14;18.20;71.60
51383;DHT22;37475;43.358;1.248;2023-03-23T10:47:03;18.40;71.40
51383;DHT22;37475;43.358;1.248;2023-03-23T10:49:55;18.60;70.70
51383;DHT22;37475;43.358;1.248;2023-03-23T10:57:41;19.10;69.10
51383;DHT22;37475;43.358;1.248;2023-03-23T11:02:47;19.10;68.60
51383;DHT22;37475;43.358;1.248;2023-03-23T11:05:27;19.10;69.00
51383;DHT22;37475;43.358;1.248;2023-03-23T11:08:15;19.10;67.30
51383;DHT22;37475;43.358;1.248;2023-03-23T11:10:50;19.00;67.10
51383;DHT22;37475;43.358;1.248;2023-03-23T11:13:19;19.20;67.80
51383;DHT22;37475;43.358;1.248;2023-03-23T11:15:48;19.10;67.90
51383;DHT22;37475;43.358;1.248;2023-03-23T11:18:26;19.60;67.40
51383;DHT22;37475;43.358;1.248;2023-03-23T11:21:12;19.80;66.90
51383;DHT22;37475;43.358;1.248;2023-03-23T11:23:42;20.00;67.70
51383;DHT22;37475;43.358;1.248;2023-03-23T11:31:41;20.70;65.70
51383;DHT22;37475;43.358;1.248;2023-03-23T11:34:15;20.70;64.70
51383;DHT22;37475;43.358;1.248;2023-03-23T11:36:48;20.60;64.60
51383;DHT22;37475;43.358;1.248;2023-03-23T11:39:26;20.40;65.90
51383;DHT22;37475;43.358;1.248;2023-03-23T11:42:01;21.00;65.30
51383;DHT22;37475;43.358;1.248;2023-03-23T11:44:42;21.10;63.70
51383;DHT22;37475;43.358;1.248;2023-03-23T11:47:40;21.00;61.70
51383;DHT22;37475;43.358;1.248;2023-03-23T11:50:26;21.10;62.90
51383;DHT22;37475;43.358;1.248;2023-03-23T11:56:01;21.00;62.70
51383;DHT22;37475;43.358;1.248;2023-03-23T11:58:29;20.50;64.40
51383;DHT22;37475;43.358;1.248;2023-03-23T12:18:55;20.90;63.30
51383;DHT22;37475;43.358;1.248;2023-03-23T12:36:34;21.00;62.10
51383;DHT22;37475;43.358;1.248;2023-03-23T12:42:35;21.60;61.30
51383;DHT22;37475;43.358;1.248;2023-03-23T12:45:21;21.50;59.60
51383;DHT22;37475;43.358;1.248;2023-03-23T12:48:06;21.10;61.30
51383;DHT22;37475;43.358;1.248;2023-03-23T12:53:31;20.60;62.80
51383;DHT22;37475;43.358;1.248;2023-03-23T12:56:24;20.60;63.90
51383;DHT22;37475;43.358;1.248;2023-03-23T13:01:48;20.40;63.10
51383;DHT22;37475;43.358;1.248;2023-03-23T13:04:34;21.10;63.30
51383;DHT22;37475;43.358;1.248;2023-03-23T13:07:06;21.60;62.10
51383;DHT22;37475;43.358;1.248;2023-03-23T13:12:24;20.90;62.70
51383;DHT22;37475;43.358;1.248;2023-03-23T13:17:47;21.00;62.60
51383;DHT22;37475;43.358;1.248;2023-03-23T13:20:23;21.10;63.50
51383;DHT22;37475;43.358;1.248;2023-03-23T13:23:23;21.80;61.20
51383;DHT22;37475;43.358;1.248;2023-03-23T13:29:08;21.90;61.10
51383;DHT22;37475;43.358;1.248;2023-03-23T13:31:31;22.00;59.70
51383;DHT22;37475;43.358;1.248;2023-03-23T13:37:08;22.00;60.10
51383;DHT22;37475;43.358;1.248;2023-03-23T13:39:38;21.30;61.60
51383;DHT22;37475;43.358;1.248;2023-03-23T13:42:28;21.90;62.20
51383;DHT22;37475;43.358;1.248;2023-03-23T13:51:00;22.90;56.10
51383;DHT22;37475;43.358;1.248;2023-03-23T13:53:48;23.10;56.90
51383;DHT22;37475;43.358;1.248;2023-03-23T13:56:21;23.10;55.90
51383;DHT22;37475;43.358;1.248;2023-03-23T13:59:30;22.10;57.90
51383;DHT22;37475;43.358;1.248;2023-03-23T14:02:26;21.60;59.70
51383;DHT22;37475;43.358;1.248;2023-03-23T14:04:56;21.80;60.10
51383;DHT22;37475;43.358;1.248;2023-03-23T14:07:22;22.00;59.00
51383;DHT22;37475;43.358;1.248;2023-03-23T14:09:51;22.10;58.10
51383;DHT22;37475;43.358;1.248;2023-03-23T14:12:26;22.40;59.20
51383;DHT22;37475;43.358;1.248;2023-03-23T14:14:59;22.60;57.20
51383;DHT22;37475;43.358;1.248;2023-03-23T14:17:35;22.40;59.40
51383;DHT22;37475;43.358;1.248;2023-03-23T14:20:06;22.00;59.20
51383;DHT22;37475;43.358;1.248;2023-03-23T14:22:35;21.60;61.00
51383;DHT22;37475;43.358;1.248;2023-03-23T14:25:15;22.60;59.20
51383;DHT22;37475;43.358;1.248;2023-03-23T14:27:43;22.60;57.90
51383;DHT22;37475;43.358;1.248;2023-03-23T14:30:18;22.40;58.90
51383;DHT22;37475;43.358;1.248;2023-03-23T14:32:45;22.00;59.30
51383;DHT22;37475;43.358;1.248;2023-03-23T14:35:27;22.10;58.40
51383;DHT22;37475;43.358;1.248;2023-03-23T14:37:56;21.90;59.60
51383;DHT22;37475;43.358;1.248;2023-03-23T14:40:22;21.50;62.10
51383;DHT22;37475;43.358;1.248;2023-03-23T14:42:52;21.30;61.30
51383;DHT22;37475;43.358;1.248;2023-03-23T14:45:21;21.40;61.40
51383;DHT22;37475;43.358;1.248;2023-03-23T14:48:00;21.60;61.40
51383;DHT22;37475;43.358;1.248;2023-03-23T14:50:36;20.20;64.00
51383;DHT22;37475;43.358;1.248;2023-03-23T14:53:25;20.30;64.60
51383;DHT22;37475;43.358;1.248;2023-03-23T14:56:15;19.90;66.00
51383;DHT22;37475;43.358;1.248;2023-03-23T14:58:49;19.50;67.20
51383;DHT22;37475;43.358;1.248;2023-03-23T15:01:23;19.20;68.70
51383;DHT22;37475;43.358;1.248;2023-03-23T15:04:05;19.30;67.60
51383;DHT22;37475;43.358;1.248;2023-03-23T15:06:36;19.30;66.70
51383;DHT22;37475;43.358;1.248;2023-03-23T15:09:07;19.80;65.70
51383;DHT22;37475;43.358;1.248;2023-03-23T15:11:39;20.00;64.10
51383;DHT22;37475;43.358;1.248;2023-03-23T15:14:17;20.40;64.30
51383;DHT22;37475;43.358;1.248;2023-03-23T15:16:56;20.50;62.90
51383;DHT22;37475;43.358;1.248;2023-03-23T15:19:36;21.20;61.40
51383;DHT22;37475;43.358;1.248;2023-03-23T15:24:45;21.00;62.30
51383;DHT22;37475;43.358;1.248;2023-03-23T15:27:44;21.10;61.60
51383;DHT22;37475;43.358;1.248;2023-03-23T15:32:53;20.90;61.90
51383;DHT22;37475;43.358;1.248;2023-03-23T15:35:23;20.40;62.00
51383;DHT22;37475;43.358;1.248;2023-03-23T15:38:02;20.10;63.40
51383;DHT22;37475;43.358;1.248;2023-03-23T15:40:36;19.60;65.70
51383;DHT22;37475;43.358;1.248;2023-03-23T15:43:22;19.60;66.70
51383;DHT22;37475;43.358;1.248;2023-03-23T15:46:22;19.80;65.50
51383;DHT22;37475;43.358;1.248;2023-03-23T15:48:54;19.10;66.40
51383;DHT22;37475;43.358;1.248;2023-03-23T15:51:35;19.00;66.90
51383;DHT22;37475;43.358;1.248;2023-03-23T15:54:01;18.50;68.40
51383;DHT22;37475;43.358;1.248;2023-03-23T15:56:27;18.30;68.90
51383;DHT22;37475;43.358;1.248;2023-03-23T15:58:55;18.30;69.40
51383;DHT22;37475;43.358;1.248;2023-03-23T16:01:25;18.20;69.50
51383;DHT22;37475;43.358;1.248;2023-03-23T16:04:04;18.00;69.70
51383;DHT22;37475;43.358;1.248;2023-03-23T16:06:32;17.80;70.60
51383;DHT22;37475;43.358;1.248;2023-03-23T16:08:59;17.60;71.40
51383;DHT22;37475;43.358;1.248;2023-03-23T16:11:27;17.60;71.60
51383;DHT22;37475;43.358;1.248;2023-03-23T16:13:54;17.40;71.40
51383;DHT22;37475;43.358;1.248;2023-03-23T16:16:23;17.50;70.50
51383;DHT22;37475;43.358;1.248;2023-03-23T16:18:51;17.20;72.60
51383;DHT22;37475;43.358;1.248;2023-03-23T16:21:17;17.30;72.40
51383;DHT22;37475;43.358;1.248;2023-03-23T16:23:43;17.30;71.70
51383;DHT22;37475;43.358;1.248;2023-03-23T16:26:11;17.30;71.50
51383;DHT22;37475;43.358;1.248;2023-03-23T16:28:38;17.50;71.80
51383;DHT22;37475;43.358;1.248;2023-03-23T16:31:04;18.10;70.70
51383;DHT22;37475;43.358;1.248;2023-03-23T16:33:29;18.30;68.90
51383;DHT22;37475;43.358;1.248;2023-03-23T16:35:55;18.20;69.00
51383;DHT22;37475;43.358;1.248;2023-03-23T16:38:23;18.30;69.30
51383;DHT22;37475;43.358;1.248;2023-03-23T16:40:49;18.70;67.90
51383;DHT22;37475;43.358;1.248;2023-03-23T16:43:15;18.60;68.20
51383;DHT22;37475;43.358;1.248;2023-03-23T16:45:43;18.80;67.40
51383;DHT22;37475;43.358;1.248;2023-03-23T16:48:09;18.50;68.10
51383;DHT22;37475;43.358;1.248;2023-03-23T16:50:37;18.00;69.00
51383;DHT22;37475;43.358;1.248;2023-03-23T16:53:04;17.80;69.80
51383;DHT22;37475;43.358;1.248;2023-03-23T16:55:31;17.60;71.20
51383;DHT22;37475;43.358;1.248;2023-03-23T16:57:58;17.60;70.60
51383;DHT22;37475;43.358;1.248;2023-03-23T17:00:24;17.60;70.70
51383;DHT22;37475;43.358;1.248;2023-03-23T17:02:52;17.50;71.20
51383;DHT22;37475;43.358;1.248;2023-03-23T17:05:22;17.20;71.50
51383;DHT22;37475;43.358;1.248;2023-03-23T17:07:51;17.00;72.60
51383;DHT22;37475;43.358;1.248;2023-03-23T17:10:17;17.00;72.90
51383;DHT22;37475;43.358;1.248;2023-03-23T17:12:43;16.80;73.50
51383;DHT22;37475;43.358;1.248;2023-03-23T17:15:09;16.90;73.30
51383;DHT22;37475;43.358;1.248;2023-03-23T17:17:36;16.80;73.40
51383;DHT22;37475;43.358;1.248;2023-03-23T17:20:03;16.60;73.80
51383;DHT22;37475;43.358;1.248;2023-03-23T17:22:29;16.40;74.80
51383;DHT22;37475;43.358;1.248;2023-03-23T17:24:55;16.30;75.10
51383;DHT22;37475;43.358;1.248;2023-03-23T17:27:22;16.20;75.40
51383;DHT22;37475;43.358;1.248;2023-03-23T17:29:49;16.30;75.50
51383;DHT22;37475;43.358;1.248;2023-03-23T17:32:15;16.50;74.60
51383;DHT22;37475;43.358;1.248;2023-03-23T17:34:41;16.50;74.60
51383;DHT22;37475;43.358;1.248;2023-03-23T17:37:07;16.60;74.30
51383;DHT22;37475;43.358;1.248;2023-03-23T17:39:33;16.40;75.10
51383;DHT22;37475;43.358;1.248;2023-03-23T17:42:00;16.60;74.60
51383;DHT22;37475;43.358;1.248;2023-03-23T17:44:26;16.60;74.40
51383;DHT22;37475;43.358;1.248;2023-03-23T17:46:52;16.50;74.90
51383;DHT22;37475;43.358;1.248;2023-03-23T17:49:21;16.40;75.10